Dati Storici

Data ora Umidita' aria (%) Temperatura aria (°C) Rad globale (W/m²) Gonioanemometro (°) Tacoanemometro (m/s) Pioggia (mm)
22-06-2020 23:30 51.3 % 25.879 47.756 -0.03 0 0
22-06-2020 23:20 51.8 % 25.849 32.144 -0.028 0 0
22-06-2020 23:10 51.8 % 25.86 15.291 -0.029 0 0
22-06-2020 23:00 51.5 % 25.79 33.91 -0.027 0 0
22-06-2020 22:50 51.9 % 25.738 24.505 1.219 0 0
22-06-2020 22:40 52.5 % 25.575 32.316 1.242 0 0
22-06-2020 22:30 52.2 % 25.49 13.907 1.613 0 0
22-06-2020 22:20 53.1 % 25.406 51.741 1.016 0 0
22-06-2020 22:10 52.6 % 25.741 12.627 1.548 0 0
22-06-2020 22:00 50 % 26.444 26.463 -0.036 0 0
22-06-2020 21:50 50.6 % 26.292 32.061 -0.037 0 0
22-06-2020 21:40 46.9 % 26.297 208.246 -0.037 0 0
22-06-2020 21:30 47.2 % 26.622 211.431 -0.034 0 0
22-06-2020 21:20 46 % 26.55 178.412 -0.035 0 0
22-06-2020 21:10 48.6 % 26.192 190.294 -0.036 0 0
22-06-2020 21:00 46.3 % 26.738 93.01 0.112 0 0
22-06-2020 20:50 43.3 % 27.338 64.129 0.285 0 0
22-06-2020 20:40 41.1 % 27.59 141.768 0.685 0 0
22-06-2020 20:30 42.4 % 27.557 16.712 -0.04 0 0
22-06-2020 20:20 39.8 % 27.693 149.305 -0.036 0 0

I dati sono presentati in modo automatico a scopo informativo. In seguito a verifica i dati possono subire modifiche o essere invalidati e non riportati negli archivi definitivi.